createdAt,value
2022-08-03T00:01:36.974Z,100441.97
2022-08-03T00:04:39.562Z,100446.09
2022-08-03T00:07:41.906Z,100440.06
2022-08-03T00:10:44.656Z,100443.44
2022-08-03T00:13:47.222Z,100444.53
2022-08-03T00:16:49.808Z,100449.31
2022-08-03T00:19:52.132Z,100450.63
2022-08-03T00:22:54.750Z,100444.97
2022-08-03T00:25:57.418Z,100450.25
2022-08-03T00:29:00.037Z,100448.22
2022-08-03T00:32:02.333Z,100444.91
2022-08-03T00:35:09.310Z,100450.16
2022-08-03T00:38:13.730Z,100452.69
2022-08-03T00:41:16.318Z,100460.84
2022-08-03T00:44:18.686Z,100466.25
2022-08-03T00:47:21.280Z,100460.50
2022-08-03T00:50:25.770Z,100461.19
2022-08-03T00:53:28.712Z,100463.25
2022-08-03T00:56:31.119Z,100462.56
2022-08-03T00:59:34.579Z,100469.97
2022-08-03T01:02:39.155Z,100468.53
2022-08-03T01:05:51.546Z,100470.53
2022-08-03T01:09:43.843Z,100473.09
2022-08-03T01:14:01.124Z,100465.44
2022-08-03T01:17:07.952Z,100473.06
2022-08-03T01:20:13.648Z,100473.97
2022-08-03T01:23:49.011Z,100479.62
2022-08-03T01:27:08.972Z,100480.75
2022-08-03T01:30:12.578Z,100479.22
2022-08-03T01:33:28.342Z,100481.19
2022-08-03T01:36:36.462Z,100473.47
2022-08-03T01:39:41.051Z,100475.75
2022-08-03T01:42:45.506Z,100475.34
2022-08-03T01:45:49.707Z,100481.00
2022-08-03T01:48:53.692Z,100480.53
2022-08-03T01:52:04.611Z,100473.00
2022-08-03T01:55:10.570Z,100470.84
2022-08-03T02:01:23.218Z,100465.94
2022-08-03T02:04:28.164Z,100470.75
2022-08-03T02:07:32.936Z,100474.69
2022-08-03T02:10:37.764Z,100466.12
2022-08-03T02:13:41.488Z,100472.28
2022-08-03T02:16:46.015Z,100470.75
2022-08-03T02:19:50.605Z,100472.59
2022-08-03T02:22:53.705Z,100473.81
2022-08-03T02:26:03.090Z,100475.50
2022-08-03T02:29:12.214Z,100478.03
2022-08-03T02:32:20.390Z,100474.63
2022-08-03T02:35:26.309Z,100473.06
2022-08-03T02:38:33.687Z,100469.12
2022-08-03T02:41:45.683Z,100469.72
2022-08-03T02:44:51.060Z,100475.34
2022-08-03T02:47:58.173Z,100475.19
2022-08-03T02:51:03.863Z,100473.00
2022-08-03T02:54:09.415Z,100479.31
2022-08-03T02:57:14.130Z,100475.69
2022-08-03T03:00:19.936Z,100483.28
2022-08-03T03:03:31.892Z,100473.50
2022-08-03T03:06:44.058Z,100475.03
2022-08-03T03:09:50.485Z,100475.44
2022-08-03T03:12:57.959Z,100474.78
2022-08-03T03:16:02.543Z,100478.69
2022-08-03T03:19:05.676Z,100475.03
2022-08-03T03:22:08.544Z,100476.44
2022-08-03T03:25:11.342Z,100480.38
2022-08-03T03:28:14.479Z,100482.88
2022-08-03T03:31:17.182Z,100485.13
2022-08-03T03:34:19.900Z,100484.47
2022-08-03T03:37:22.538Z,100483.22
2022-08-03T03:40:25.622Z,100481.00
2022-08-03T03:43:29.438Z,100473.00
2022-08-03T03:46:32.011Z,100482.38
2022-08-03T03:49:34.947Z,100477.75
2022-08-03T03:52:37.603Z,100487.41
2022-08-03T03:55:59.317Z,100481.78
2022-08-03T03:59:03.517Z,100495.69
2022-08-03T04:02:07.957Z,100489.09
2022-08-03T04:05:29.412Z,100492.22
2022-08-03T04:08:50.683Z,100482.66
2022-08-03T04:11:58.652Z,100486.84
2022-08-03T04:15:03.246Z,100488.69
2022-08-03T04:18:09.687Z,100494.44
2022-08-03T04:21:14.151Z,100502.81
2022-08-03T04:24:18.618Z,100509.78
2022-08-03T04:27:23.366Z,100513.44
2022-08-03T04:30:29.989Z,100506.38
2022-08-03T04:33:34.913Z,100508.34
2022-08-03T04:36:44.749Z,100508.81
2022-08-03T04:39:50.141Z,100513.06
2022-08-03T04:42:55.822Z,100517.16
2022-08-03T04:45:59.365Z,100524.69
2022-08-03T04:49:02.747Z,100521.97
2022-08-03T04:52:07.377Z,100522.91
2022-08-03T04:55:10.170Z,100523.50
2022-08-03T04:58:12.759Z,100526.56
2022-08-03T05:01:16.725Z,100534.44
2022-08-03T05:04:20.563Z,100539.13
2022-08-03T05:07:25.195Z,100539.88
2022-08-03T05:10:27.969Z,100545.03
2022-08-03T05:13:30.732Z,100549.56
2022-08-03T05:16:33.211Z,100547.34
2022-08-03T05:19:35.967Z,100547.84
2022-08-03T05:22:38.332Z,100549.75
2022-08-03T05:25:49.723Z,100552.88
2022-08-03T05:28:53.458Z,100556.00
2022-08-03T05:31:56.442Z,100552.03
2022-08-03T05:34:59.644Z,100557.00
2022-08-03T05:38:28.337Z,100563.31
2022-08-03T05:41:36.841Z,100557.16
2022-08-03T05:44:40.383Z,100565.75
2022-08-03T05:47:44.366Z,100565.13
2022-08-03T05:50:47.249Z,100567.19
2022-08-03T05:53:49.672Z,100566.37
2022-08-03T05:56:52.370Z,100566.22
2022-08-03T05:59:58.327Z,100575.13
2022-08-03T06:03:02.387Z,100574.12
2022-08-03T06:06:05.131Z,100575.63
2022-08-03T06:09:07.673Z,100583.53
2022-08-03T06:12:14.052Z,100586.06
2022-08-03T06:15:18.765Z,100589.75
2022-08-03T06:18:21.635Z,100590.28
2022-08-03T06:21:23.993Z,100589.13
2022-08-03T06:24:30.013Z,100583.94
2022-08-03T06:27:37.210Z,100594.31
2022-08-03T06:30:40.893Z,100591.66
2022-08-03T06:34:31.185Z,100590.94
2022-08-03T06:37:05.934Z,100585.91
2022-08-03T06:40:31.437Z,100591.41
2022-08-03T06:43:37.601Z,100597.13
2022-08-03T06:46:40.806Z,100604.50
2022-08-03T06:49:43.610Z,100602.28
2022-08-03T06:53:06.124Z,100603.94
2022-08-03T06:56:08.736Z,100604.41
2022-08-03T07:00:06.109Z,100604.00
2022-08-03T07:02:33.920Z,100606.87
2022-08-03T07:05:36.376Z,100611.34
2022-08-03T07:08:39.074Z,100609.16
2022-08-03T07:11:41.452Z,100607.72
2022-08-03T07:14:44.195Z,100611.06
2022-08-03T07:17:46.614Z,100606.13
2022-08-03T07:20:51.213Z,100606.56
2022-08-03T07:23:54.192Z,100608.22
2022-08-03T07:26:56.874Z,100611.69
2022-08-03T07:30:00.245Z,100604.91
2022-08-03T07:33:02.911Z,100604.66
2022-08-03T07:36:05.351Z,100609.44
2022-08-03T07:39:15.838Z,100603.03
2022-08-03T07:42:20.538Z,100610.88
2022-08-03T07:45:23.828Z,100602.66
2022-08-03T07:48:26.232Z,100599.44
2022-08-03T07:51:28.991Z,100609.22
2022-08-03T07:54:32.033Z,100606.87
2022-08-03T07:57:35.342Z,100598.78
2022-08-03T08:00:39.401Z,100597.38
2022-08-03T08:03:52.784Z,100594.50
2022-08-03T08:06:55.918Z,100596.75
2022-08-03T08:09:58.961Z,100603.44
2022-08-03T08:13:01.814Z,100598.22
2022-08-03T08:16:05.310Z,100596.37
2022-08-03T08:19:08.504Z,100599.06
2022-08-03T08:22:13.475Z,100589.00
2022-08-03T08:25:19.473Z,100599.59
2022-08-03T08:28:30.573Z,100600.19
2022-08-03T08:31:34.498Z,100593.28
2022-08-03T08:34:37.253Z,100601.28
2022-08-03T08:37:40.644Z,100599.41
2022-08-03T08:40:45.218Z,100594.44
2022-08-03T08:43:47.602Z,100589.00
2022-08-03T08:46:52.908Z,100590.06
2022-08-03T08:50:09.416Z,100591.53
2022-08-03T08:53:18.189Z,100591.84
2022-08-03T08:56:25.485Z,100586.59
2022-08-03T08:59:47.834Z,100594.06
2022-08-03T09:02:50.970Z,100588.53
2022-08-03T09:05:56.035Z,100590.25
2022-08-03T09:08:58.906Z,100587.66
2022-08-03T09:12:35.026Z,100590.91
2022-08-03T09:15:27.002Z,100581.56
2022-08-03T09:18:33.372Z,100578.06
2022-08-03T09:21:35.806Z,100584.81
2022-08-03T09:25:14.780Z,100573.59
2022-08-03T09:28:53.973Z,100588.59
2022-08-03T09:31:47.443Z,100576.75
2022-08-03T09:34:55.248Z,100573.00
2022-08-03T09:38:29.995Z,100576.16
2022-08-03T09:41:33.609Z,100569.84
2022-08-03T09:44:38.653Z,100566.50
2022-08-03T09:47:45.015Z,100569.25
2022-08-03T09:50:56.973Z,100564.66
2022-08-03T09:54:03.921Z,100568.56
2022-08-03T09:57:06.769Z,100563.84
2022-08-03T10:00:16.356Z,100555.69
2022-08-03T10:03:19.201Z,100549.84
2022-08-03T10:06:22.364Z,100545.87
2022-08-03T10:09:32.114Z,100547.12
2022-08-03T10:12:34.688Z,100540.78
2022-08-03T10:16:23.007Z,100541.44
2022-08-03T10:19:05.254Z,100533.91
2022-08-03T10:22:14.602Z,100532.22
2022-08-03T10:25:18.087Z,100535.78
2022-08-03T10:28:21.767Z,100535.37
2022-08-03T10:31:25.048Z,100535.50
2022-08-03T10:34:33.938Z,100526.53
2022-08-03T10:37:57.025Z,100517.31
2022-08-03T10:41:02.976Z,100519.94
2022-08-03T10:44:18.922Z,100525.13
2022-08-03T10:47:21.856Z,100519.91
2022-08-03T10:50:26.885Z,100510.03
2022-08-03T10:53:44.014Z,100520.59
2022-08-03T10:57:14.421Z,100513.91
2022-08-03T11:00:23.921Z,100498.44
2022-08-03T11:03:32.923Z,100494.22
2022-08-03T11:06:37.611Z,100487.87
2022-08-03T11:09:47.695Z,100486.03
2022-08-03T11:12:50.987Z,100485.66
2022-08-03T11:15:59.825Z,100484.16
2022-08-03T11:19:10.565Z,100483.47
2022-08-03T11:22:15.791Z,100479.78
2022-08-03T11:25:53.893Z,100464.78
2022-08-03T11:28:43.038Z,100469.53
2022-08-03T11:31:50.194Z,100463.97
2022-08-03T11:35:16.493Z,100463.47
2022-08-03T11:38:24.503Z,100461.47
2022-08-03T11:41:34.020Z,100459.56
2022-08-03T11:44:48.093Z,100459.22
2022-08-03T11:47:54.875Z,100457.84
2022-08-03T11:50:57.499Z,100452.91
2022-08-03T11:54:02.543Z,100454.63
2022-08-03T11:57:05.220Z,100456.69
2022-08-03T12:00:25.845Z,100457.19
2022-08-03T12:03:33.562Z,100441.84
2022-08-03T12:06:54.954Z,100441.09
2022-08-03T12:10:12.319Z,100441.25
2022-08-03T12:14:33.139Z,100436.91
2022-08-03T12:16:38.350Z,100439.41
2022-08-03T12:19:44.052Z,100433.75
2022-08-03T12:22:46.781Z,100434.41
2022-08-03T12:25:49.547Z,100439.41
2022-08-03T12:28:52.487Z,100431.28
2022-08-03T12:31:55.965Z,100425.12
2022-08-03T12:35:01.355Z,100426.22
2022-08-03T12:38:04.635Z,100414.97
2022-08-03T12:41:16.660Z,100415.47
2022-08-03T12:44:29.300Z,100412.81
2022-08-03T12:47:53.141Z,100417.28
2022-08-03T12:51:08.438Z,100402.69
2022-08-03T12:54:24.750Z,100409.22
2022-08-03T12:57:43.281Z,100397.28
2022-08-03T13:00:55.869Z,100406.28
2022-08-03T13:03:58.329Z,100398.75
2022-08-03T13:07:06.500Z,100400.78
2022-08-03T13:10:31.411Z,100401.59
2022-08-03T13:13:39.945Z,100391.75
2022-08-03T13:16:42.306Z,100392.34
2022-08-03T13:19:46.294Z,100383.50
2022-08-03T13:22:48.975Z,100383.59
2022-08-03T13:25:55.262Z,100380.34
2022-08-03T13:28:59.143Z,100371.41
2022-08-03T13:32:03.323Z,100372.44
2022-08-03T13:35:07.015Z,100371.91
2022-08-03T13:38:09.886Z,100367.22
2022-08-03T13:41:15.421Z,100363.22
2022-08-03T13:44:29.152Z,100369.63
2022-08-03T13:47:32.495Z,100368.38
2022-08-03T13:50:39.780Z,100356.63
2022-08-03T13:53:44.956Z,100355.37
2022-08-03T13:56:52.882Z,100346.97
2022-08-03T13:59:55.507Z,100348.19
2022-08-03T14:03:13.701Z,100352.41
2022-08-03T14:06:17.252Z,100345.31
2022-08-03T14:09:19.643Z,100348.16
2022-08-03T14:12:22.265Z,100335.16
2022-08-03T14:15:26.570Z,100334.47
2022-08-03T14:18:34.078Z,100333.03
2022-08-03T14:21:36.642Z,100331.09
2022-08-03T14:24:39.273Z,100327.34
2022-08-03T14:27:41.486Z,100318.16
2022-08-03T14:30:44.336Z,100318.53
2022-08-03T14:33:46.598Z,100319.53
2022-08-03T14:36:49.159Z,100318.87
2022-08-03T14:40:00.306Z,100317.59
2022-08-03T14:43:03.931Z,100313.72
2022-08-03T14:46:06.934Z,100317.91
2022-08-03T14:50:36.455Z,100311.63
2022-08-03T14:52:32.666Z,100305.69
2022-08-03T14:55:38.558Z,100308.66
2022-08-03T14:58:42.459Z,100297.31
2022-08-03T15:02:04.468Z,100299.41
2022-08-03T15:05:08.028Z,100307.34
2022-08-03T15:08:11.137Z,100303.19
2022-08-03T15:11:13.520Z,100308.59
2022-08-03T15:14:16.144Z,100305.94
2022-08-03T15:17:18.726Z,100304.63
2022-08-03T15:20:42.673Z,100311.44
2022-08-03T15:23:45.986Z,100304.69
2022-08-03T15:26:48.744Z,100300.88
2022-08-03T15:30:05.758Z,100301.50
2022-08-03T15:33:12.957Z,100292.00
2022-08-03T15:36:15.536Z,100291.22
2022-08-03T15:39:18.337Z,100290.53
2022-08-03T15:42:20.802Z,100290.94
2022-08-03T15:45:28.209Z,100291.37
2022-08-03T15:48:38.183Z,100288.28
